Time;durP1;ratioP1;P1;durP2;ratioP2;P2;SDS_P1;SDS_P2;PMS_P1;PMS_P2;Temp;Humidity;BMP_temperature;BMP_pressure;BME280_temperature;BME280_humidity;BME280_pressure;Samples;Min_cycle;Max_cycle;Signal;HPM_P1;HPM_P2
2023/01/16 00:00:50;;;;;;;6.35;1.63;;;;;;;;;;5065128;28;20044;-61
2023/01/16 00:03:16;;;;;;;3.45;1.25;;;;;;;;;;5070433;28;20112;-61
2023/01/16 00:05:42;;;;;;;5.88;1.60;;;;;;;;;;5069230;28;20112;-61
2023/01/16 00:08:07;;;;;;;3.67;1.42;;;;;;;;;;5069146;28;20150;-60
2023/01/16 00:10:33;;;;;;;7.53;2.17;;;;;;;;;;5067654;28;20028;-61
2023/01/16 00:12:58;;;;;;;2.78;1.33;;;;;;;;;;5080987;28;20450;-61
2023/01/16 00:15:23;;;;;;;3.97;1.30;;;;;;;;;;5065896;28;20025;-60
2023/01/16 00:17:49;;;;;;;6.53;1.50;;;;;;;;;;5072870;28;20375;-61
2023/01/16 00:20:15;;;;;;;4.10;1.40;;;;;;;;;;5074602;28;20058;-60
2023/01/16 00:22:41;;;;;;;4.88;1.17;;;;;;;;;;5073724;28;20063;-61
2023/01/16 00:25:07;;;;;;;3.67;1.65;;;;;;;;;;5057480;28;20095;-61
2023/01/16 00:27:32;;;;;;;7.28;1.65;;;;;;;;;;5073854;28;20056;-61
2023/01/16 00:29:58;;;;;;;5.82;1.55;;;;;;;;;;5071204;28;20503;-61
2023/01/16 00:32:23;;;;;;;3.97;1.40;;;;;;;;;;5085967;28;20024;-61
2023/01/16 00:34:48;;;;;;;4.97;1.42;;;;;;;;;;5094271;28;20059;-61
2023/01/16 00:37:14;;;;;;;4.63;1.08;;;;;;;;;;5080218;28;20028;-61
2023/01/16 00:39:39;;;;;;;5.22;1.30;;;;;;;;;;5071640;28;20114;-62
2023/01/16 00:42:06;;;;;;;2.63;1.20;;;;;;;;;;5091465;28;20040;-61
2023/01/16 00:44:31;;;;;;;1.95;0.80;;;;;;;;;;5080941;28;20029;-60
2023/01/16 00:46:57;;;;;;;1.35;0.88;;;;;;;;;;5088864;28;20042;-61
2023/01/16 00:49:22;;;;;;;3.35;0.90;;;;;;;;;;5094546;28;20043;-61
2023/01/16 00:51:47;;;;;;;2.22;0.95;;;;;;;;;;5068968;28;20036;-61
2023/01/16 00:54:13;;;;;;;2.75;1.08;;;;;;;;;;5055782;28;20040;-61
2023/01/16 00:56:38;;;;;;;3.17;1.25;;;;;;;;;;5067852;28;20035;-61
2023/01/16 00:59:04;;;;;;;2.50;1.17;;;;;;;;;;5071389;28;20035;-61
2023/01/16 01:01:30;;;;;;;4.68;1.00;;;;;;;;;;5070333;28;20116;-61
2023/01/16 01:03:57;;;;;;;1.00;0.80;;;;;;;;;;5068158;28;20624;-60
2023/01/16 01:06:22;;;;;;;2.88;1.30;;;;;;;;;;5070649;28;20032;-61
2023/01/16 01:08:48;;;;;;;3.25;1.10;;;;;;;;;;5078584;28;20556;-60
2023/01/16 01:11:14;;;;;;;5.68;1.48;;;;;;;;;;5058857;28;20020;-62
2023/01/16 01:13:40;;;;;;;5.78;1.42;;;;;;;;;;5086895;28;20054;-62
2023/01/16 01:16:07;;;;;;;6.03;1.30;;;;;;;;;;5083556;28;20036;-62
2023/01/16 01:18:32;;;;;;;2.20;1.10;;;;;;;;;;5064473;28;20382;-63
2023/01/16 01:20:58;;;;;;;2.40;1.08;;;;;;;;;;5060709;28;20036;-63
2023/01/16 01:23:24;;;;;;;2.67;0.90;;;;;;;;;;5076288;28;20040;-63
2023/01/16 01:25:50;;;;;;;3.17;1.30;;;;;;;;;;5072856;28;20402;-63
2023/01/16 01:28:15;;;;;;;3.45;1.35;;;;;;;;;;5079149;28;20036;-61
2023/01/16 01:30:41;;;;;;;2.75;1.15;;;;;;;;;;5087371;28;20032;-63
2023/01/16 01:33:08;;;;;;;4.18;1.20;;;;;;;;;;5072757;28;20036;-62
2023/01/16 01:35:34;;;;;;;7.28;1.52;;;;;;;;;;5071557;28;20029;-64
2023/01/16 01:37:59;;;;;;;2.28;1.05;;;;;;;;;;5071473;28;20037;-61
2023/01/16 01:40:24;;;;;;;2.85;1.00;;;;;;;;;;5063934;28;20025;-61
2023/01/16 01:42:53;;;;;;;5.20;1.20;;;;;;;;;;5079520;28;20471;-61
2023/01/16 01:45:24;;;;;;;1.75;1.05;;;;;;;;;;5071113;28;20032;-61
2023/01/16 01:47:54;;;;;;;3.67;1.48;;;;;;;;;;5072315;28;20033;-61
2023/01/16 01:50:37;;;;;;;4.87;1.30;;;;;;;;;;5072975;28;20035;-61
2023/01/16 01:53:09;;;;;;;3.70;1.40;;;;;;;;;;5077337;28;20028;-60
2023/01/16 01:55:36;;;;;;;4.05;1.20;;;;;;;;;;5092754;28;20369;-61
2023/01/16 01:58:02;;;;;;;4.10;1.45;;;;;;;;;;5074710;28;20032;-60
2023/01/16 02:00:29;;;;;;;5.07;1.10;;;;;;;;;;5073201;28;20562;-59
2023/01/16 02:03:11;;;;;;;4.82;1.40;;;;;;;;;;5075331;28;20159;-58
2023/01/16 02:05:44;;;;;;;2.22;1.02;;;;;;;;;;5092250;28;20028;-61
2023/01/16 02:08:14;;;;;;;6.55;1.30;;;;;;;;;;5082937;28;20400;-57
2023/01/16 02:11:25;;;;;;;3.63;1.33;;;;;;;;;;5072034;28;20484;-60
2023/01/16 02:14:02;;;;;;;;;;;;;;;;;;5079135;28;20602;-59
2023/01/16 02:19:40;;;;;;;4.15;1.27;;;;;;;;;;5085073;28;20039;-62
2023/01/16 02:22:23;;;;;;;3.17;1.13;;;;;;;;;;5055359;28;20518;-59
2023/01/16 02:25:10;;;;;;;4.13;1.13;;;;;;;;;;5079964;28;20040;-57
2023/01/16 02:28:09;;;;;;;1.52;1.05;;;;;;;;;;5069340;28;20051;-62
2023/01/16 02:30:56;;;;;;;3.88;1.08;;;;;;;;;;5075604;28;20058;-61
2023/01/16 02:33:51;;;;;;;3.10;1.23;;;;;;;;;;5079963;28;20107;-60
2023/01/16 02:36:41;;;;;;;6.88;1.45;;;;;;;;;;5063034;28;20068;-60
2023/01/16 02:39:18;;;;;;;1.30;0.90;;;;;;;;;;5080526;28;20043;-59
2023/01/16 02:41:44;;;;;;;3.05;1.40;;;;;;;;;;5082133;28;20043;-59
2023/01/16 02:44:43;;;;;;;4.25;1.20;;;;;;;;;;5070446;28;20457;-60
2023/01/16 02:47:26;;;;;;;3.15;0.82;;;;;;;;;;5072691;28;20028;-59
2023/01/16 02:50:20;;;;;;;6.13;1.40;;;;;;;;;;5067870;28;20036;-59
2023/01/16 02:53:02;;;;;;;4.75;1.17;;;;;;;;;;5073188;28;20127;-60
2023/01/16 02:55:39;;;;;;;4.07;1.30;;;;;;;;;;5070583;28;20529;-60
2023/01/16 02:58:06;;;;;;;1.90;1.10;;;;;;;;;;5070646;28;20469;-61
2023/01/16 03:00:33;;;;;;;3.47;1.10;;;;;;;;;;5069171;28;20036;-61
2023/01/16 03:02:59;;;;;;;3.65;1.20;;;;;;;;;;5068694;28;20488;-60
2023/01/16 03:05:26;;;;;;;3.10;0.95;;;;;;;;;;5071185;28;20028;-59
2023/01/16 03:08:16;;;;;;;2.83;1.00;;;;;;;;;;5067661;28;20131;-60
2023/01/16 03:11:22;;;;;;;5.13;1.30;;;;;;;;;;5068210;28;20039;-61
2023/01/16 03:14:21;;;;;;;4.47;1.27;;;;;;;;;;5069079;28;20082;-60
2023/01/16 03:17:10;;;;;;;4.72;1.10;;;;;;;;;;5061825;28;20036;-61
2023/01/16 03:19:54;;;;;;;4.88;1.20;;;;;;;;;;5062017;28;20030;-61
2023/01/16 03:23:18;;;;;;;6.40;1.20;;;;;;;;;;5069780;28;20024;-59
2023/01/16 03:25:51;;;;;;;6.18;1.23;;;;;;;;;;5028370;28;20037;-59
2023/01/16 03:28:47;;;;;;;3.95;1.20;;;;;;;;;;5062454;28;20055;-59
2023/01/16 03:31:41;;;;;;;3.28;1.40;;;;;;;;;;5082975;28;20066;-58
2023/01/16 03:34:33;;;;;;;4.47;1.38;;;;;;;;;;5081100;28;20117;-61
2023/01/16 03:37:01;;;;;;;2.83;1.20;;;;;;;;;;5050026;28;20120;-60
2023/01/16 03:39:35;;;;;;;3.97;1.40;;;;;;;;;;5080777;28;20031;-59
2023/01/16 03:42:07;;;;;;;2.88;1.30;;;;;;;;;;5071113;28;20029;-59
2023/01/16 03:44:37;;;;;;;5.03;1.95;;;;;;;;;;5066282;28;20519;-61
2023/01/16 03:47:08;;;;;;;3.22;1.20;;;;;;;;;;5077407;28;20054;-61
2023/01/16 03:49:39;;;;;;;;;;;;;;;;;;5072439;28;20044;-62
2023/01/16 03:52:08;;;;;;;2.28;1.10;;;;;;;;;;5067715;28;19912;-60
2023/01/16 03:54:47;;;;;;;1.92;1.17;;;;;;;;;;5066071;28;20036;-61
2023/01/16 03:57:25;;;;;;;2.38;1.00;;;;;;;;;;5057657;28;20397;-60
2023/01/16 03:59:52;;;;;;;1.42;0.90;;;;;;;;;;5025014;28;1118782;-60
2023/01/16 04:02:22;;;;;;;1.75;0.95;;;;;;;;;;5056374;28;20041;-60
2023/01/16 04:05:00;;;;;;;2.47;1.02;;;;;;;;;;5061638;28;20037;-61
2023/01/16 04:07:42;;;;;;;2.50;1.10;;;;;;;;;;5063184;28;20563;-61
2023/01/16 04:10:15;;;;;;;1.45;1.00;;;;;;;;;;5067775;28;20635;-60
2023/01/16 04:12:46;;;;;;;2.30;0.93;;;;;;;;;;5068718;28;20025;-61
2023/01/16 04:15:12;;;;;;;2.10;1.02;;;;;;;;;;5071050;28;20492;-60
2023/01/16 04:17:39;;;;;;;2.50;1.08;;;;;;;;;;5076476;28;20032;-60
2023/01/16 04:20:06;;;;;;;2.03;1.17;;;;;;;;;;5068826;28;20028;-60
2023/01/16 04:22:32;;;;;;;2.53;0.90;;;;;;;;;;5062201;28;20057;-60
2023/01/16 04:25:00;;;;;;;1.42;0.98;;;;;;;;;;5067485;28;20032;-59
2023/01/16 04:27:26;;;;;;;2.67;1.10;;;;;;;;;;5078838;28;20032;-60
2023/01/16 04:29:51;;;;;;;1.13;0.98;;;;;;;;;;5076784;28;20036;-61
2023/01/16 04:32:16;;;;;;;1.25;0.90;;;;;;;;;;5073035;28;20381;-59
2023/01/16 04:34:42;;;;;;;2.15;0.95;;;;;;;;;;5069685;28;20028;-59
2023/01/16 04:37:09;;;;;;;2.30;0.85;;;;;;;;;;5068762;28;20461;-60
2023/01/16 04:39:34;;;;;;;2.05;1.00;;;;;;;;;;5070003;28;20063;-61
2023/01/16 04:41:59;;;;;;;1.58;0.85;;;;;;;;;;5073328;28;20055;-59
2023/01/16 04:44:25;;;;;;;2.50;0.90;;;;;;;;;;5070036;28;20033;-59
2023/01/16 04:46:50;;;;;;;3.20;1.25;;;;;;;;;;5067787;28;20501;-60
2023/01/16 04:49:16;;;;;;;2.00;0.90;;;;;;;;;;5067618;28;20028;-59
2023/01/16 04:51:42;;;;;;;2.50;0.88;;;;;;;;;;5070944;28;20029;-61
2023/01/16 04:54:13;;;;;;;1.65;1.02;;;;;;;;;;5078109;28;20476;-61
2023/01/16 04:56:38;;;;;;;1.70;0.95;;;;;;;;;;5067334;28;20401;-61
2023/01/16 04:59:04;;;;;;;1.63;0.80;;;;;;;;;;5077630;28;20036;-61
2023/01/16 05:01:34;;;;;;;2.13;1.20;;;;;;;;;;5072245;28;20041;-61
2023/01/16 05:04:01;;;;;;;2.78;1.02;;;;;;;;;;5072195;28;20029;-60
2023/01/16 05:06:26;;;;;;;0.88;0.85;;;;;;;;;;5069557;28;20031;-62
2023/01/16 05:08:51;;;;;;;1.17;0.88;;;;;;;;;;5055044;28;20037;-61
2023/01/16 05:11:17;;;;;;;2.10;0.80;;;;;;;;;;5065684;28;20066;-60
2023/01/16 05:13:42;;;;;;;2.78;0.95;;;;;;;;;;5072074;28;20077;-61
2023/01/16 05:16:08;;;;;;;3.42;1.20;;;;;;;;;;5074620;28;20074;-61
2023/01/16 05:18:33;;;;;;;2.75;1.00;;;;;;;;;;5078556;28;20035;-61
2023/01/16 05:21:00;;;;;;;1.58;0.90;;;;;;;;;;5072476;28;20043;-59
2023/01/16 05:23:25;;;;;;;1.67;0.82;;;;;;;;;;5071428;28;20021;-60
2023/01/16 05:25:51;;;;;;;2.50;0.80;;;;;;;;;;5070976;28;20119;-61
2023/01/16 05:28:16;;;;;;;2.78;1.10;;;;;;;;;;5071374;28;20056;-60
2023/01/16 05:30:41;;;;;;;1.15;1.00;;;;;;;;;;5070697;28;20461;-64
2023/01/16 05:33:07;;;;;;;3.70;1.20;;;;;;;;;;5072750;28;20254;-59
2023/01/16 05:35:33;;;;;;;5.82;1.20;;;;;;;;;;5085045;28;20032;-60
2023/01/16 05:37:58;;;;;;;4.78;1.20;;;;;;;;;;5062959;28;20414;-60
2023/01/16 05:40:24;;;;;;;3.60;1.40;;;;;;;;;;5073190;28;20020;-60
2023/01/16 05:42:49;;;;;;;4.85;1.40;;;;;;;;;;5073563;28;20032;-60
2023/01/16 05:45:14;;;;;;;4.93;1.60;;;;;;;;;;5080497;28;20111;-60
2023/01/16 05:47:40;;;;;;;4.68;1.30;;;;;;;;;;5071282;28;20032;-61
2023/01/16 05:50:06;;;;;;;2.42;1.40;;;;;;;;;;5070145;28;20028;-60
2023/01/16 05:52:31;;;;;;;1.95;1.10;;;;;;;;;;5058052;28;20036;-61
2023/01/16 05:54:57;;;;;;;2.67;1.30;;;;;;;;;;5067442;28;20020;-59
2023/01/16 05:57:22;;;;;;;3.97;1.52;;;;;;;;;;5067169;28;20480;-60
2023/01/16 05:59:49;;;;;;;5.70;1.42;;;;;;;;;;5070322;28;20074;-59
2023/01/16 06:02:15;;;;;;;4.00;1.48;;;;;;;;;;5070606;28;20052;-59
2023/01/16 06:04:41;;;;;;;5.20;1.77;;;;;;;;;;5069986;28;20088;-59
2023/01/16 06:07:06;;;;;;;5.55;1.80;;;;;;;;;;5071414;28;20166;-58
2023/01/16 06:09:32;;;;;;;4.90;1.63;;;;;;;;;;5067807;28;20043;-61
2023/01/16 06:11:57;;;;;;;4.35;1.60;;;;;;;;;;5063427;28;20033;-59
2023/01/16 06:14:23;;;;;;;4.55;1.20;;;;;;;;;;5069921;28;20476;-61
2023/01/16 06:16:49;;;;;;;2.42;1.25;;;;;;;;;;5069953;28;20492;-60
2023/01/16 06:19:14;;;;;;;2.22;1.13;;;;;;;;;;5080060;28;20039;-60
2023/01/16 06:21:39;;;;;;;4.30;1.17;;;;;;;;;;5072710;28;20024;-59
2023/01/16 06:24:05;;;;;;;3.28;1.10;;;;;;;;;;5074396;28;20886;-63
2023/01/16 06:26:31;;;;;;;5.35;1.50;;;;;;;;;;5073997;28;20058;-54
2023/01/16 06:28:56;;;;;;;2.65;1.20;;;;;;;;;;5059122;28;20451;-60
2023/01/16 06:31:22;;;;;;;3.33;1.27;;;;;;;;;;5072353;28;20024;-60
2023/01/16 06:33:48;;;;;;;3.97;1.25;;;;;;;;;;5091580;28;20034;-61
2023/01/16 06:36:13;;;;;;;1.88;1.15;;;;;;;;;;5091186;28;20075;-60
2023/01/16 06:38:39;;;;;;;2.85;1.00;;;;;;;;;;5091579;28;20058;-61
2023/01/16 06:41:04;;;;;;;2.17;1.05;;;;;;;;;;5084386;28;20457;-62
2023/01/16 06:43:30;;;;;;;4.68;1.20;;;;;;;;;;5091237;28;20020;-60
2023/01/16 06:45:55;;;;;;;4.50;1.30;;;;;;;;;;5074856;28;20121;-59
2023/01/16 06:48:21;;;;;;;3.95;1.15;;;;;;;;;;5072144;28;20067;-60
2023/01/16 06:50:46;;;;;;;6.60;1.30;;;;;;;;;;5085470;28;20400;-61
2023/01/16 06:53:12;;;;;;;4.45;1.15;;;;;;;;;;5090989;28;20105;-60
2023/01/16 06:55:39;;;;;;;1.98;0.98;;;;;;;;;;5073591;28;20028;-62
2023/01/16 06:58:05;;;;;;;3.50;1.13;;;;;;;;;;5061551;28;20032;-61
2023/01/16 07:00:30;;;;;;;6.60;1.20;;;;;;;;;;5073365;28;20102;-59
2023/01/16 07:02:57;;;;;;;2.28;1.10;;;;;;;;;;5069186;28;20098;-62
2023/01/16 07:05:27;;;;;;;4.13;1.30;;;;;;;;;;5068597;28;20036;-61
2023/01/16 07:07:52;;;;;;;2.33;1.17;;;;;;;;;;5089340;28;20028;-60
2023/01/16 07:10:20;;;;;;;2.08;0.90;;;;;;;;;;5073347;28;20025;-60
2023/01/16 07:12:49;;;;;;;2.72;1.23;;;;;;;;;;5066630;28;20024;-61
2023/01/16 07:23:34;;;;;;;3.25;1.27;;;;;;;;;;5089665;28;20046;-60
2023/01/16 07:26:03;;;;;;;4.22;1.15;;;;;;;;;;5066628;28;20501;-61
2023/01/16 07:28:29;;;;;;;1.88;1.10;;;;;;;;;;5057139;28;20393;-57
2023/01/16 07:30:56;;;;;;;3.08;1.20;;;;;;;;;;5069353;28;20108;-60
2023/01/16 07:33:22;;;;;;;3.60;1.00;;;;;;;;;;5073733;28;20507;-59
2023/01/16 07:35:47;;;;;;;2.25;1.30;;;;;;;;;;5063415;28;20064;-59
2023/01/16 07:38:13;;;;;;;2.97;1.30;;;;;;;;;;5052468;28;20028;-61
2023/01/16 07:40:38;;;;;;;2.78;1.40;;;;;;;;;;5070529;28;20032;-62
2023/01/16 07:43:04;;;;;;;2.80;1.50;;;;;;;;;;5072658;28;20025;-62
2023/01/16 07:45:29;;;;;;;3.50;1.45;;;;;;;;;;5057934;28;20036;-60
2023/01/16 07:47:54;;;;;;;3.95;1.40;;;;;;;;;;5070000;28;20746;-59
2023/01/16 07:50:20;;;;;;;2.15;1.20;;;;;;;;;;5070241;28;20533;-60
2023/01/16 07:52:46;;;;;;;3.22;1.40;;;;;;;;;;5070374;28;20039;-61
2023/01/16 07:55:12;;;;;;;1.85;0.98;;;;;;;;;;5073064;28;20055;-60
2023/01/16 07:57:39;;;;;;;5.25;1.27;;;;;;;;;;5068102;28;20036;-63
2023/01/16 08:00:06;;;;;;;3.58;1.60;;;;;;;;;;5066694;28;20068;-58
2023/01/16 08:02:31;;;;;;;3.97;1.40;;;;;;;;;;5069232;28;20032;-60
2023/01/16 08:04:56;;;;;;;2.92;1.52;;;;;;;;;;5065725;28;20095;-55
2023/01/16 08:07:22;;;;;;;3.08;1.50;;;;;;;;;;5070139;28;20116;-61
2023/01/16 08:09:47;;;;;;;3.05;1.50;;;;;;;;;;5068764;28;20036;-60
2023/01/16 08:12:13;;;;;;;3.28;1.50;;;;;;;;;;5083090;28;20031;-60
2023/01/16 08:14:39;;;;;;;1.83;1.30;;;;;;;;;;5054350;28;20489;-61
2023/01/16 08:17:04;;;;;;;4.63;1.50;;;;;;;;;;5072933;28;20032;-60
2023/01/16 08:19:30;;;;;;;4.80;1.50;;;;;;;;;;5072946;28;20458;-60
2023/01/16 08:21:55;;;;;;;3.53;1.55;;;;;;;;;;5062368;28;20046;-59
2023/01/16 08:24:20;;;;;;;2.67;1.30;;;;;;;;;;5056027;28;20029;-60
2023/01/16 08:26:46;;;;;;;2.97;1.48;;;;;;;;;;5059368;28;20410;-60
2023/01/16 08:29:11;;;;;;;3.08;1.50;;;;;;;;;;5062033;28;20044;-60
2023/01/16 08:31:37;;;;;;;1.90;1.23;;;;;;;;;;5058030;28;20024;-61
2023/01/16 08:34:02;;;;;;;3.97;1.70;;;;;;;;;;5069370;28;20086;-60
2023/01/16 08:36:28;;;;;;;4.05;1.42;;;;;;;;;;5080922;28;20055;-60
2023/01/16 08:38:53;;;;;;;2.97;1.23;;;;;;;;;;5084180;28;20036;-59
2023/01/16 08:52:29;;;;;;;4.82;1.75;;;;;;;;;;5091947;28;20086;-60
2023/01/16 08:54:56;;;;;;;2.70;1.38;;;;;;;;;;5087812;28;20182;-59
2023/01/16 08:57:21;;;;;;;3.85;1.30;;;;;;;;;;5072760;28;20029;-61
2023/01/16 08:59:46;;;;;;;3.30;1.30;;;;;;;;;;5070462;28;20378;-59
2023/01/16 09:02:14;;;;;;;3.65;1.60;;;;;;;;;;5074438;28;20024;-59
2023/01/16 09:04:39;;;;;;;2.95;1.60;;;;;;;;;;5071850;28;20037;-62
2023/01/16 09:07:05;;;;;;;3.75;1.50;;;;;;;;;;5067800;28;20044;-59
2023/01/16 09:09:30;;;;;;;3.03;1.23;;;;;;;;;;5073439;28;20408;-59
2023/01/16 09:14:41;;;;;;;2.60;1.40;;;;;;;;;;5073037;28;20400;-61
2023/01/16 09:17:07;;;;;;;4.25;1.40;;;;;;;;;;5084473;28;20032;-60
2023/01/16 09:19:33;;;;;;;4.63;1.52;;;;;;;;;;5080946;28;20025;-59
2023/01/16 09:21:59;;;;;;;2.88;1.33;;;;;;;;;;5083009;28;20036;-56
2023/01/16 09:24:24;;;;;;;2.80;1.38;;;;;;;;;;5080999;28;20086;-59
2023/01/16 09:26:50;;;;;;;5.13;1.45;;;;;;;;;;5084878;28;20078;-59
2023/01/16 09:29:15;;;;;;;1.90;1.23;;;;;;;;;;5086553;28;20039;-61
2023/01/16 09:31:41;;;;;;;3.28;1.50;;;;;;;;;;5071250;28;20032;-61
2023/01/16 09:34:06;;;;;;;3.08;1.52;;;;;;;;;;5073126;28;20024;-59
2023/01/16 09:36:31;;;;;;;1.88;1.20;;;;;;;;;;5072115;28;20110;-60
2023/01/16 09:38:57;;;;;;;2.33;1.10;;;;;;;;;;5071161;28;20036;-60
2023/01/16 09:44:13;;;;;;;3.53;1.33;;;;;;;;;;5073102;28;20039;-61
2023/01/16 09:46:49;;;;;;;4.18;1.15;;;;;;;;;;5080206;28;20040;-61
2023/01/16 09:49:20;;;;;;;2.70;1.20;;;;;;;;;;5072650;28;20036;-59
2023/01/16 10:00:15;;;;;;;2.78;0.90;;;;;;;;;;5072491;28;20059;-61
2023/01/16 10:02:40;;;;;;;1.50;1.23;;;;;;;;;;5072107;28;20479;-60
2023/01/16 10:05:06;;;;;;;3.00;0.80;;;;;;;;;;5069885;28;20028;-60
2023/01/16 10:07:38;;;;;;;2.47;0.93;;;;;;;;;;5070009;28;20032;-59
2023/01/16 10:10:12;;;;;;;1.02;0.93;;;;;;;;;;5081537;28;20032;-61
2023/01/16 10:12:39;;;;;;;1.02;0.90;;;;;;;;;;5092124;28;20051;-64
2023/01/16 10:15:31;;;;;;;2.65;1.00;;;;;;;;;;5090296;28;20036;-60
2023/01/16 10:18:15;;;;;;;2.25;1.20;;;;;;;;;;5065155;28;20040;-58
2023/01/16 10:20:46;;;;;;;2.45;1.20;;;;;;;;;;5071192;28;20405;-57
2023/01/16 10:23:40;;;;;;;1.48;1.10;;;;;;;;;;5076140;28;20040;-60
2023/01/16 10:26:05;;;;;;;1.48;1.00;;;;;;;;;;5071913;28;20024;-60
2023/01/16 10:28:49;;;;;;;1.23;1.00;;;;;;;;;;5087695;28;20397;-61
2023/01/16 10:31:18;;;;;;;1.13;0.93;;;;;;;;;;5065578;28;20052;-59
2023/01/16 10:33:48;;;;;;;2.22;1.05;;;;;;;;;;5073586;28;20503;-58
2023/01/16 10:36:17;;;;;;;1.30;0.90;;;;;;;;;;5071051;28;20039;-60
2023/01/16 10:38:45;;;;;;;1.63;0.82;;;;;;;;;;5074477;28;20059;-61
2023/01/16 10:50:17;;;;;;;1.48;1.00;;;;;;;;;;5086909;28;20413;-61
2023/01/16 10:52:43;;;;;;;1.98;1.13;;;;;;;;;;5075124;28;20056;-59
2023/01/16 10:55:10;;;;;;;2.05;1.08;;;;;;;;;;5070328;28;20058;-59
2023/01/16 10:57:40;;;;;;;2.20;1.00;;;;;;;;;;5069583;28;20032;-62
2023/01/16 11:00:13;;;;;;;2.42;1.00;;;;;;;;;;5079161;28;20063;-60
2023/01/16 11:02:45;;;;;;;2.53;1.10;;;;;;;;;;5088164;28;20036;-61
2023/01/16 11:05:32;;;;;;;2.75;1.08;;;;;;;;;;5070688;28;20070;-60
2023/01/16 11:08:12;;;;;;;2.08;0.98;;;;;;;;;;5073898;28;20091;-58
2023/01/16 11:10:40;;;;;;;2.25;1.10;;;;;;;;;;5057810;28;20419;-59
2023/01/16 11:18:55;;;;;;;2.03;1.20;;;;;;;;;;5081693;28;20040;-61
2023/01/16 11:21:28;;;;;;;2.08;1.00;;;;;;;;;;5091116;28;20028;-60
2023/01/16 11:24:03;;;;;;;1.85;0.98;;;;;;;;;;5090011;28;20036;-62
2023/01/16 11:26:29;;;;;;;2.90;1.27;;;;;;;;;;5089559;28;20078;-60
2023/01/16 11:28:56;;;;;;;1.17;0.88;;;;;;;;;;5064397;28;20079;-59
2023/01/16 11:31:30;;;;;;;1.05;0.77;;;;;;;;;;5065111;28;20047;-60
2023/01/16 11:34:01;;;;;;;1.90;0.80;;;;;;;;;;5069605;28;20092;-58
2023/01/16 11:36:29;;;;;;;2.45;0.98;;;;;;;;;;5071374;28;20365;-57
2023/01/16 11:38:55;;;;;;;2.47;1.08;;;;;;;;;;5085346;28;20089;-58
2023/01/16 11:41:49;;;;;;;1.33;0.90;;;;;;;;;;5071413;28;20036;-59
2023/01/16 11:47:04;;;;;;;3.20;1.40;;;;;;;;;;5071005;28;20031;-59
2023/01/16 11:49:37;;;;;;;0.95;0.82;;;;;;;;;;5071008;28;20029;-59
2023/01/16 11:52:04;;;;;;;0.95;0.70;;;;;;;;;;5067537;28;20029;-58
2023/01/16 11:54:32;;;;;;;2.28;0.90;;;;;;;;;;5051084;28;20032;-58
2023/01/16 11:57:39;;;;;;;1.80;0.95;;;;;;;;;;5058992;28;20422;-60
2023/01/16 12:00:10;;;;;;;1.75;0.90;;;;;;;;;;5011627;28;20580;-59
2023/01/16 12:02:50;;;;;;;2.42;0.70;;;;;;;;;;5015323;28;20056;-60
2023/01/16 12:05:58;;;;;;;1.42;0.82;;;;;;;;;;4996719;28;20042;-59
2023/01/16 12:08:27;;;;;;;1.08;0.63;;;;;;;;;;5008888;28;20065;-57
2023/01/16 12:11:15;;;;;;;2.50;0.90;;;;;;;;;;5009447;28;20049;-59
2023/01/16 12:17:04;;;;;;;2.25;1.13;;;;;;;;;;5015698;28;20092;-59
2023/01/16 12:19:57;;;;;;;1.98;0.90;;;;;;;;;;5011699;28;20092;-58
2023/01/16 12:22:35;;;;;;;5.60;0.90;;;;;;;;;;5016109;28;20061;-59
2023/01/16 12:25:14;;;;;;;1.35;0.90;;;;;;;;;;5010486;28;20093;-58
2023/01/16 12:28:00;;;;;;;0.93;0.90;;;;;;;;;;5011609;28;20042;-60
2023/01/16 12:31:07;;;;;;;1.77;0.90;;;;;;;;;;5023635;28;20094;-60
2023/01/16 12:34:00;;;;;;;1.00;0.90;;;;;;;;;;5034206;28;20027;-61
2023/01/16 12:36:34;;;;;;;0.70;0.70;;;;;;;;;;5043332;28;20048;-61
2023/01/16 12:39:05;;;;;;;2.38;1.02;;;;;;;;;;5042493;28;20041;-60
2023/01/16 12:44:28;;;;;;;1.92;0.90;;;;;;;;;;5052640;28;20368;-59
2023/01/16 12:47:02;;;;;;;1.80;1.00;;;;;;;;;;5051016;28;20093;-61
2023/01/16 12:50:02;;;;;;;1.45;0.90;;;;;;;;;;5054530;28;20029;-60
2023/01/16 12:52:46;;;;;;;1.83;0.80;;;;;;;;;;5054381;28;20492;-61
2023/01/16 12:55:32;;;;;;;1.27;1.08;;;;;;;;;;5036939;28;20520;-59
2023/01/16 12:58:11;;;;;;;1.65;1.10;;;;;;;;;;5032623;28;20123;-58
2023/01/16 13:00:42;;;;;;;1.70;1.10;;;;;;;;;;5042043;28;20053;-60
2023/01/16 13:03:38;;;;;;;0.80;0.80;;;;;;;;;;5069034;28;20028;-58
2023/01/16 13:06:06;;;;;;;3.22;1.20;;;;;;;;;;5076756;28;20036;-59
2023/01/16 13:08:38;;;;;;;1.90;1.10;;;;;;;;;;5073394;28;20081;-60
2023/01/16 13:14:03;;;;;;;2.13;0.95;;;;;;;;;;5060814;28;20044;-58
2023/01/16 13:16:29;;;;;;;;;;;;;;;;;;5062521;28;20036;-59
2023/01/16 13:19:03;;;;;;;2.47;0.80;;;;;;;;;;5070526;28;19985;-59
2023/01/16 13:21:34;;;;;;;1.75;0.98;;;;;;;;;;5070239;28;20032;-59
2023/01/16 13:24:12;;;;;;;0.85;0.75;;;;;;;;;;5074971;28;20121;-58
2023/01/16 13:26:39;;;;;;;0.98;0.88;;;;;;;;;;5063393;28;20059;-61
2023/01/16 13:29:23;;;;;;;0.93;0.90;;;;;;;;;;5069053;28;20032;-58
2023/01/16 13:31:53;;;;;;;1.17;0.90;;;;;;;;;;5068570;28;20063;-59
2023/01/16 13:34:30;;;;;;;2.80;1.77;;;;;;;;;;5073145;28;20025;-59
2023/01/16 13:37:32;;;;;;;0.88;0.75;;;;;;;;;;5070141;28;20039;-59
2023/01/16 13:40:23;;;;;;;0.70;0.70;;;;;;;;;;5052200;28;20032;-60
2023/01/16 13:42:55;;;;;;;0.85;0.85;;;;;;;;;;5054703;28;20043;-59
2023/01/16 13:45:50;;;;;;;1.13;0.88;;;;;;;;;;5071989;28;20043;-60
2023/01/16 13:48:22;;;;;;;2.25;0.85;;;;;;;;;;5058363;28;20047;-55
2023/01/16 13:50:59;;;;;;;1.33;1.00;;;;;;;;;;5058169;28;20025;-55
2023/01/16 13:53:26;;;;;;;1.85;1.00;;;;;;;;;;5068558;28;20025;-58
2023/01/16 13:56:05;;;;;;;2.25;0.90;;;;;;;;;;5070878;28;20036;-59
2023/01/16 13:58:31;;;;;;;0.95;0.85;;;;;;;;;;5065291;28;20024;-61
2023/01/16 14:01:00;;;;;;;0.75;0.75;;;;;;;;;;5079435;28;20037;-60
2023/01/16 14:03:30;;;;;;;1.98;1.20;;;;;;;;;;5070670;28;20020;-61
2023/01/16 14:06:11;;;;;;;1.40;1.00;;;;;;;;;;5070403;28;20055;-57
2023/01/16 14:09:04;;;;;;;1.35;1.13;;;;;;;;;;5072287;28;20486;-61
2023/01/16 14:11:54;;;;;;;2.13;0.90;;;;;;;;;;5072854;28;20039;-60
2023/01/16 14:17:22;;;;;;;3.22;1.00;;;;;;;;;;5070391;28;20039;-62
2023/01/16 14:19:53;;;;;;;4.45;1.02;;;;;;;;;;5071329;28;20499;-60
2023/01/16 14:24:52;;;;;;;2.35;0.90;;;;;;;;;;5071404;28;20089;-55
2023/01/16 14:27:21;;;;;;;1.15;0.98;;;;;;;;;;5071186;28;20106;-58
2023/01/16 14:29:55;;;;;;;1.85;1.10;;;;;;;;;;5066769;28;20040;-57
2023/01/16 14:32:24;;;;;;;1.00;0.90;;;;;;;;;;5071845;28;20082;-58
2023/01/16 14:35:01;;;;;;;1.85;1.30;;;;;;;;;;5064342;28;20036;-58
2023/01/16 14:37:26;;;;;;;1.70;1.30;;;;;;;;;;5072181;28;20036;-60
2023/01/16 14:39:51;;;;;;;2.05;1.35;;;;;;;;;;5070957;28;20130;-60
2023/01/16 14:55:13;;;;;;;1.70;1.02;;;;;;;;;;5074990;28;20043;-60
2023/01/16 14:57:11;;;;;;;1.70;1.10;;;;;;;;;;5069241;28;20051;-60
2023/01/16 14:59:42;;;;;;;2.20;1.05;;;;;;;;;;5063493;28;20048;-60
2023/01/16 15:02:20;;;;;;;0.80;0.80;;;;;;;;;;5070446;28;20037;-60
2023/01/16 15:04:50;;;;;;;1.80;1.10;;;;;;;;;;5070842;28;20028;-60
2023/01/16 15:07:21;;;;;;;1.58;1.10;;;;;;;;;;5071734;28;20112;-60
2023/01/16 15:09:49;;;;;;;0.88;0.88;;;;;;;;;;5068441;28;20048;-58
2023/01/16 15:12:19;;;;;;;1.48;1.02;;;;;;;;;;5070638;28;20094;-60
2023/01/16 15:14:56;;;;;;;1.73;0.90;;;;;;;;;;5052539;28;20029;-60
2023/01/16 15:23:05;;;;;;;1.77;0.90;;;;;;;;;;5050907;28;20957;-60
2023/01/16 15:25:52;;;;;;;1.33;1.10;;;;;;;;;;5059266;28;20039;-61
2023/01/16 15:28:32;;;;;;;2.53;1.20;;;;;;;;;;5069937;28;20025;-59
2023/01/16 15:31:00;;;;;;;2.55;1.20;;;;;;;;;;5070828;28;20453;-59
2023/01/16 15:33:48;;;;;;;1.02;0.93;;;;;;;;;;5070109;28;20020;-59
2023/01/16 15:36:25;;;;;;;2.85;1.10;;;;;;;;;;5079566;28;20055;-60
2023/01/16 15:38:57;;;;;;;3.15;1.10;;;;;;;;;;5070092;28;20448;-58
2023/01/16 15:47:18;;;;;;;1.20;1.10;;;;;;;;;;5068247;28;20737;-58
2023/01/16 15:49:56;;;;;;;1.70;1.35;;;;;;;;;;5057249;28;20033;-61
2023/01/16 15:52:27;;;;;;;2.13;1.52;;;;;;;;;;5059377;28;20033;-61
2023/01/16 15:54:52;;;;;;;2.28;1.50;;;;;;;;;;5087398;28;20104;-61
2023/01/16 15:57:18;;;;;;;4.43;1.40;;;;;;;;;;5074582;28;20064;-61
2023/01/16 15:59:52;;;;;;;2.30;1.60;;;;;;;;;;5063896;28;20059;-61
2023/01/16 16:02:23;;;;;;;2.92;1.70;;;;;;;;;;5061541;28;20465;-59
2023/01/16 16:04:50;;;;;;;;;;;;;;;;;;5069617;28;20033;-61
2023/01/16 16:07:16;;;;;;;3.75;1.70;;;;;;;;;;5070550;28;19920;-61
2023/01/16 16:09:44;;;;;;;3.10;1.90;;;;;;;;;;5068005;28;20500;-62
2023/01/16 16:12:10;;;;;;;3.03;1.80;;;;;;;;;;5070238;28;20111;-60
2023/01/16 16:20:37;;;;;;;4.45;2.03;;;;;;;;;;5073683;28;20539;-61
2023/01/16 16:23:26;;;;;;;2.90;2.08;;;;;;;;;;5067766;28;20029;-59
2023/01/16 16:25:56;;;;;;;3.30;1.95;;;;;;;;;;5068606;28;20111;-61
2023/01/16 16:28:30;;;;;;;4.53;2.42;;;;;;;;;;5071151;28;20473;-61
2023/01/16 16:31:00;;;;;;;4.43;2.28;;;;;;;;;;5069803;28;20028;-61
2023/01/16 16:33:27;;;;;;;5.10;2.35;;;;;;;;;;5069447;28;20052;-61
2023/01/16 16:35:58;;;;;;;3.42;2.30;;;;;;;;;;5069743;28;20142;-61
2023/01/16 16:38:31;;;;;;;5.20;2.30;;;;;;;;;;5071112;28;20111;-61
2023/01/16 16:41:08;;;;;;;3.63;2.38;;;;;;;;;;5068545;28;20044;-60
2023/01/16 16:43:55;;;;;;;3.95;2.38;;;;;;;;;;5068149;28;20059;-61
2023/01/16 16:46:23;;;;;;;4.38;2.58;;;;;;;;;;5070526;28;20043;-60